Time;durP1;ratioP1;P1;durP2;ratioP2;P2;SDS_P1;SDS_P2;PMS_P1;PMS_P2;Temp;Humidity;BMP_temperature;BMP_pressure;BME280_temperature;BME280_humidity;BME280_pressure;Samples;Min_cycle;Max_cycle;Signal;HPM_P1;HPM_P2
2021/12/15 00:01:09;;;;;;;13.25;9.43;;;;;;;9.08;100.00;100681.20;1703498;83;21140;-65
2021/12/15 00:03:37;;;;;;;14.03;8.63;;;;;;;8.95;100.00;100676.02;1702904;83;21701;-64
2021/12/15 00:06:11;;;;;;;13.80;8.85;;;;;;;9.30;100.00;100672.75;1701105;83;20963;-66
2021/12/15 00:08:35;;;;;;;14.55;9.25;;;;;;;9.18;100.00;100671.46;1700847;83;21039;-63
2021/12/15 00:11:03;;;;;;;13.95;8.45;;;;;;;9.18;100.00;100662.36;1700958;83;20993;-65
2021/12/15 00:13:31;;;;;;;13.22;8.08;;;;;;;9.13;100.00;100655.05;1699180;83;21140;-63
2021/12/15 00:15:59;;;;;;;12.93;8.53;;;;;;;8.91;100.00;100659.61;1701249;83;20991;-64
2021/12/15 00:18:28;;;;;;;13.50;9.00;;;;;;;8.96;100.00;100655.53;1702234;83;21073;-65
2021/12/15 00:20:55;;;;;;;12.60;9.55;;;;;;;9.24;100.00;100648.68;1700816;83;21045;-65
2021/12/15 00:23:23;;;;;;;13.83;8.73;;;;;;;9.35;100.00;100651.44;1701454;83;21033;-64
2021/12/15 00:25:51;;;;;;;13.25;8.50;;;;;;;9.56;100.00;100648.31;1701263;83;21106;-64
2021/12/15 00:28:19;;;;;;;12.80;8.93;;;;;;;9.39;100.00;100644.42;1701557;83;20998;-67
2021/12/15 00:30:46;;;;;;;12.78;8.48;;;;;;;9.39;100.00;100637.92;1700145;83;21353;-64
2021/12/15 00:33:14;;;;;;;12.20;8.30;;;;;;;9.52;100.00;100631.41;1701055;83;21891;-64
2021/12/15 00:35:41;;;;;;;10.43;7.60;;;;;;;9.47;100.00;100624.08;1671752;83;21025;-64
2021/12/15 00:38:09;;;;;;;10.25;7.03;;;;;;;9.43;100.00;100635.80;1703079;83;22663;-63
2021/12/15 00:40:37;;;;;;;11.48;8.18;;;;;;;9.59;100.00;100627.17;1700611;83;21062;-70
2021/12/15 00:43:04;;;;;;;11.30;7.58;;;;;;;9.63;100.00;100635.77;1702860;83;21049;-66
2021/12/15 00:45:33;;;;;;;11.20;7.17;;;;;;;9.32;100.00;100635.69;1701287;83;21033;-65
2021/12/15 00:48:00;;;;;;;9.50;6.72;;;;;;;9.33;100.00;100628.69;1701236;83;21082;-66
2021/12/15 00:50:32;;;;;;;11.40;6.97;;;;;;;8.98;100.00;100631.98;1701754;83;21252;-66
2021/12/15 00:52:59;;;;;;;10.00;6.87;;;;;;;9.09;100.00;100619.11;1700440;83;21120;-66
2021/12/15 00:55:26;;;;;;;9.55;6.50;;;;;;;9.02;100.00;100618.98;1701262;83;21025;-65
2021/12/15 00:57:54;;;;;;;10.18;6.55;;;;;;;9.07;100.00;100603.69;1701276;83;20974;-65
2021/12/15 01:00:25;;;;;;;8.90;6.53;;;;;;;9.00;100.00;100608.72;1701429;83;21027;-65
2021/12/15 01:02:53;;;;;;;9.43;5.95;;;;;;;9.28;100.00;100610.98;1701716;83;21827;-65
2021/12/15 01:05:23;;;;;;;9.38;5.80;;;;;;;9.10;100.00;100619.45;1684677;83;21129;-64
2021/12/15 01:07:50;;;;;;;9.33;6.05;;;;;;;9.06;100.00;100622.06;1684481;83;21042;-64
2021/12/15 01:10:23;;;;;;;9.98;6.25;;;;;;;9.20;100.00;100618.77;1685163;84;21501;-65
2021/12/15 01:21:09;;;;;;;8.93;5.53;;;;;;;9.10;100.00;100619.45;1683782;84;21153;-64
2021/12/15 01:23:36;;;;;;;8.88;5.75;;;;;;;8.82;100.00;100626.27;1688492;83;21079;-66
2021/12/15 01:26:10;;;;;;;9.05;5.58;;;;;;;9.01;100.00;100635.04;1689962;83;21030;-64
2021/12/15 01:28:39;;;;;;;10.53;6.30;;;;;;;9.12;100.00;100635.20;1688767;83;21591;-64
2021/12/15 01:31:07;;;;;;;8.33;5.37;;;;;;;9.21;100.00;100632.12;1690479;83;20999;-65
2021/12/15 01:33:35;;;;;;;9.35;6.03;;;;;;;9.59;100.00;100631.08;1687148;83;20988;-65
2021/12/15 01:36:03;;;;;;;9.18;5.85;;;;;;;9.33;100.00;100626.89;1690752;83;21475;-68
2021/12/15 01:38:32;;;;;;;8.48;5.65;;;;;;;9.58;100.00;100615.92;1689337;83;21332;-64
2021/12/15 01:40:59;;;;;;;9.30;6.33;;;;;;;9.32;100.00;100609.67;1691281;83;21242;-63
2021/12/15 01:49:11;;;;;;;8.58;5.90;;;;;;;9.34;100.00;100619.41;1691365;83;21070;-68
2021/12/15 01:51:40;;;;;;;11.18;5.80;;;;;;;9.33;100.00;100616.49;1691640;83;21106;-68
2021/12/15 01:54:07;;;;;;;9.13;5.90;;;;;;;9.49;100.00;100617.74;1693865;83;22416;-66
2021/12/15 01:56:35;;;;;;;9.10;6.00;;;;;;;9.43;100.00;100621.03;1689440;83;21071;-69
2021/12/15 01:59:03;;;;;;;9.80;6.45;;;;;;;9.08;100.00;100627.41;1692378;83;20971;-64
2021/12/15 02:01:31;;;;;;;9.53;5.80;;;;;;;9.26;100.00;100619.42;1689355;83;21814;-64
2021/12/15 02:03:59;;;;;;;10.08;5.90;;;;;;;9.46;100.00;100626.37;1693993;83;21148;-66
2021/12/15 02:06:26;;;;;;;8.73;5.47;;;;;;;9.41;100.00;100624.27;1713957;82;21160;-64
2021/12/15 02:08:53;;;;;;;10.13;6.75;;;;;;;9.33;100.00;100626.09;1711752;82;20907;-64
2021/12/15 02:11:22;;;;;;;9.50;6.05;;;;;;;8.94;100.00;100634.09;1710997;82;21033;-64
2021/12/15 02:13:49;;;;;;;9.33;5.53;;;;;;;9.03;100.00;100632.30;1709593;83;21443;-65
2021/12/15 02:16:17;;;;;;;7.58;5.03;;;;;;;9.26;100.00;100625.93;1711114;82;21060;-65
2021/12/15 02:18:45;;;;;;;9.85;5.95;;;;;;;9.06;100.00;100616.37;1709616;82;21233;-63
2021/12/15 02:21:18;;;;;;;9.43;6.03;;;;;;;9.01;100.00;100618.63;1710547;83;21093;-64
2021/12/15 02:23:52;;;;;;;11.10;6.58;;;;;;;9.20;100.00;100625.27;1712703;82;21049;-68
2021/12/15 02:26:23;;;;;;;8.55;6.00;;;;;;;8.95;100.00;100630.52;1713450;82;21368;-68
2021/12/15 02:28:54;;;;;;;9.38;5.97;;;;;;;8.85;100.00;100631.16;1714113;83;20920;-66
2021/12/15 02:31:53;;;;;;;10.53;5.92;;;;;;;8.57;100.00;100644.14;1713670;83;21167;-63
2021/12/15 02:34:31;;;;;;;9.23;5.80;;;;;;;8.76;100.00;100652.94;1707394;82;20978;-65
2021/12/15 02:39:24;;;;;;;9.50;5.37;;;;;;;8.86;100.00;100652.27;1709167;82;21079;-68
2021/12/15 02:41:52;;;;;;;9.93;5.53;;;;;;;8.62;100.00;100656.16;1707963;83;21033;-63
2021/12/15 02:44:20;;;;;;;7.95;5.40;;;;;;;8.70;100.00;100664.77;1709377;82;21096;-62
2021/12/15 02:46:48;;;;;;;9.20;5.70;;;;;;;8.76;100.00;100668.04;1709128;83;21045;-63
2021/12/15 02:49:17;;;;;;;8.80;5.58;;;;;;;8.69;100.00;100663.64;1709097;82;21001;-68
2021/12/15 02:51:46;;;;;;;8.63;5.72;;;;;;;8.89;100.00;100664.14;1708681;83;21186;-63
2021/12/15 02:54:14;;;;;;;9.95;6.00;;;;;;;8.83;100.00;100671.30;1709529;82;20964;-65
2021/12/15 02:56:42;;;;;;;11.43;6.80;;;;;;;8.93;100.00;100663.65;1708876;83;22080;-63
2021/12/15 02:59:12;;;;;;;12.82;7.35;;;;;;;9.01;100.00;100663.64;1709175;82;21025;-65
2021/12/15 03:04:54;;;;;;;14.53;9.13;;;;;;;8.70;100.00;100665.27;1709049;82;21032;-62
2021/12/15 03:07:33;;;;;;;15.98;9.40;;;;;;;8.79;100.00;100672.11;1708232;82;21081;-64
2021/12/15 03:15:33;;;;;;;11.48;7.72;;;;;;;9.00;100.00;100678.93;1708870;83;21028;-62
2021/12/15 03:18:10;;;;;;;11.90;8.10;;;;;;;8.99;100.00;100669.51;1707965;82;21037;-63
2021/12/15 03:20:46;;;;;;;15.00;9.30;;;;;;;9.09;100.00;100662.02;1708193;83;21112;-66
2021/12/15 03:23:16;;;;;;;13.18;8.28;;;;;;;8.96;100.00;100675.52;1709385;82;21123;-68
2021/12/15 03:25:43;;;;;;;15.38;9.50;;;;;;;9.14;100.00;100667.08;1708857;82;20918;-63
2021/12/15 03:34:40;;;;;;;11.25;7.42;;;;;;;9.23;100.00;100656.16;1708890;82;21610;-65
2021/12/15 03:36:22;;;;;;;11.20;7.03;;;;;;;9.23;100.00;100653.08;1698568;83;21581;-63
2021/12/15 03:38:42;;;;;;;13.45;8.20;;;;;;;9.25;100.00;100651.63;1708755;82;21104;-69
2021/12/15 03:41:10;;;;;;;10.72;7.53;;;;;;;9.22;100.00;100637.64;1709148;82;20997;-64
2021/12/15 03:43:38;;;;;;;11.60;7.65;;;;;;;9.19;100.00;100642.67;1708436;83;21096;-67
2021/12/15 03:46:11;;;;;;;11.10;6.87;;;;;;;8.99;100.00;100644.00;1707686;82;21476;-64
2021/12/15 03:48:40;;;;;;;12.73;7.10;;;;;;;9.01;100.00;100641.55;1708041;82;21221;-68
2021/12/15 03:51:07;;;;;;;11.20;7.30;;;;;;;9.08;100.00;100642.20;1709208;82;21121;-64
2021/12/15 03:53:35;;;;;;;10.78;6.75;;;;;;;8.64;100.00;100639.94;1708890;82;20959;-69
2021/12/15 03:56:02;;;;;;;10.68;6.97;;;;;;;8.78;100.00;100643.17;1708068;83;21006;-64
2021/12/15 03:58:30;;;;;;;14.85;7.75;;;;;;;9.12;100.00;100643.50;1708596;83;21060;-65
2021/12/15 04:01:03;;;;;;;10.18;6.40;;;;;;;9.22;100.00;100653.25;1743744;76;21179;-63
2021/12/15 04:03:35;;;;;;;11.35;7.20;;;;;;;9.24;100.00;100653.87;1803459;78;21047;-64
2021/12/15 04:06:07;;;;;;;12.63;7.60;;;;;;;9.19;100.00;100649.67;1804998;79;21467;-65
2021/12/15 04:08:35;;;;;;;14.20;7.90;;;;;;;9.25;100.00;100631.62;1805042;79;21524;-64
2021/12/15 04:11:04;;;;;;;11.20;7.35;;;;;;;9.36;100.00;100623.16;1805748;78;21093;-65
2021/12/15 04:13:32;;;;;;;13.50;8.03;;;;;;;9.37;100.00;100625.59;1803909;79;21121;-65
2021/12/15 04:16:05;;;;;;;11.55;7.62;;;;;;;9.28;100.00;100634.39;1805994;78;20932;-64
2021/12/15 04:18:28;;;;;;;14.63;8.90;;;;;;;9.01;100.00;100632.44;1803741;79;20992;-64
2021/12/15 04:20:57;;;;;;;13.88;7.95;;;;;;;9.08;100.00;100637.81;1804002;78;21474;-65
2021/12/15 04:23:25;;;;;;;13.58;7.30;;;;;;;9.10;100.00;100632.46;1802584;78;21070;-68
2021/12/15 04:25:58;;;;;;;11.33;7.65;;;;;;;9.57;100.00;100639.52;1803470;79;21091;-66
2021/12/15 04:28:34;;;;;;;12.93;8.58;;;;;;;9.36;100.00;100645.28;1804248;79;20996;-65
2021/12/15 04:31:05;;;;;;;12.35;7.65;;;;;;;8.95;100.00;100648.71;1805386;79;21050;-65
2021/12/15 04:33:37;;;;;;;15.20;9.60;;;;;;;9.05;100.00;100649.02;1804436;78;21581;-64
2021/12/15 04:36:06;;;;;;;13.90;8.70;;;;;;;9.32;100.00;100636.98;1801457;79;21508;-67
2021/12/15 04:38:33;;;;;;;13.72;8.23;;;;;;;9.21;100.00;100650.33;1806490;78;21125;-62
2021/12/15 04:41:04;;;;;;;12.93;7.78;;;;;;;9.14;100.00;100655.38;1805818;78;21086;-64
2021/12/15 04:43:34;;;;;;;12.20;7.50;;;;;;;9.00;100.00;100650.33;1776451;79;21645;-65
2021/12/15 04:46:03;;;;;;;13.68;8.78;;;;;;;8.98;100.00;100650.99;1797472;78;21394;-64
2021/12/15 04:48:31;;;;;;;12.75;7.53;;;;;;;9.21;100.00;100663.34;1803423;79;21570;-64
2021/12/15 04:50:58;;;;;;;13.58;8.43;;;;;;;9.10;100.00;100664.48;1798859;79;21112;-63
2021/12/15 04:53:26;;;;;;;13.65;8.38;;;;;;;9.13;100.00;100662.02;1805590;78;20920;-63
2021/12/15 04:55:53;;;;;;;13.95;8.38;;;;;;;8.95;100.00;100670.81;1803088;79;21035;-67
2021/12/15 04:58:21;;;;;;;13.83;7.90;;;;;;;9.08;100.00;100670.81;1805163;79;21058;-65
2021/12/15 05:00:53;;;;;;;12.13;8.13;;;;;;;9.18;100.00;100672.77;1800378;78;21510;-67
2021/12/15 05:03:21;;;;;;;13.73;8.20;;;;;;;9.56;100.00;100678.25;1813142;78;21770;-66
2021/12/15 05:05:48;;;;;;;15.50;8.65;;;;;;;9.26;100.00;100674.86;1807844;78;20912;-66
2021/12/15 05:08:16;;;;;;;13.68;8.23;;;;;;;9.24;100.00;100669.48;1814465;78;21018;-64
2021/12/15 05:10:46;;;;;;;14.20;8.75;;;;;;;9.00;100.00;100669.83;1815116;78;21065;-64
2021/12/15 05:13:13;;;;;;;12.70;7.90;;;;;;;9.18;100.00;100668.86;1814678;78;21025;-68
2021/12/15 05:15:41;;;;;;;11.48;7.53;;;;;;;9.35;100.00;100664.44;1814162;78;21133;-64
2021/12/15 05:18:10;;;;;;;15.38;8.80;;;;;;;9.26;100.00;100657.14;1814322;78;20963;-64
2021/12/15 05:20:39;;;;;;;12.88;8.18;;;;;;;9.47;100.00;100664.41;1814425;78;21033;-65
2021/12/15 05:23:07;;;;;;;12.88;7.62;;;;;;;9.40;100.00;100673.89;1814405;78;21069;-64
2021/12/15 05:25:36;;;;;;;10.63;7.30;;;;;;;9.00;100.00;100677.63;1810980;78;20932;-65
2021/12/15 05:28:04;;;;;;;12.18;7.87;;;;;;;8.92;100.00;100682.83;1804407;78;21147;-66
2021/12/15 05:30:31;;;;;;;11.78;7.25;;;;;;;9.07;100.00;100682.19;1802085;78;20998;-65
2021/12/15 05:32:59;;;;;;;12.58;8.23;;;;;;;9.04;100.00;100687.22;1810962;78;21026;-65
2021/12/15 05:35:26;;;;;;;14.93;8.40;;;;;;;8.99;100.00;100702.02;1814937;78;20975;-65
2021/12/15 05:37:57;;;;;;;12.60;8.03;;;;;;;9.03;100.00;100701.20;1811957;78;21536;-65
2021/12/15 05:40:24;;;;;;;13.80;8.15;;;;;;;9.29;100.00;100707.55;1815013;78;21119;-65
2021/12/15 05:42:56;;;;;;;12.98;7.03;;;;;;;9.19;100.00;100709.00;1810835;78;21066;-64
2021/12/15 05:45:23;;;;;;;14.00;8.60;;;;;;;9.00;100.00;100718.42;1803021;79;20979;-65
2021/12/15 05:47:50;;;;;;;11.83;7.50;;;;;;;9.31;100.00;100712.09;1804194;79;22005;-68
2021/12/15 05:50:17;;;;;;;12.65;8.28;;;;;;;9.05;100.00;100712.73;1802693;79;20919;-66
2021/12/15 05:52:44;;;;;;;13.40;8.55;;;;;;;9.01;100.00;100711.75;1805469;79;21094;-65
2021/12/15 05:55:12;;;;;;;16.23;9.73;;;;;;;9.06;100.00;100710.48;1804540;79;20876;-66
2021/12/15 05:57:39;;;;;;;12.33;8.03;;;;;;;9.18;100.00;100701.37;1804663;79;20986;-66
2021/12/15 06:00:13;;;;;;;14.00;7.70;;;;;;;8.89;100.00;100705.25;1758886;80;20967;-66
2021/12/15 06:02:41;;;;;;;13.28;8.40;;;;;;;9.05;100.00;100704.44;1802723;78;21576;-66
2021/12/15 06:05:09;;;;;;;14.00;8.40;;;;;;;9.11;100.00;100697.80;1799762;79;21130;-66
2021/12/15 06:07:37;;;;;;;12.85;8.90;;;;;;;9.16;100.00;100704.61;1799708;79;21066;-66
2021/12/15 06:10:06;;;;;;;11.78;7.70;;;;;;;9.26;100.00;100700.06;1800536;79;20979;-66
2021/12/15 06:12:35;;;;;;;13.65;8.80;;;;;;;9.20;100.00;100702.01;1800188;78;20979;-66
2021/12/15 06:15:04;;;;;;;11.70;8.05;;;;;;;8.93;100.00;100703.95;1802290;78;21529;-66
2021/12/15 06:17:32;;;;;;;13.03;9.20;;;;;;;8.94;100.00;100702.16;1801618;79;20976;-66
2021/12/15 06:20:00;;;;;;;14.60;9.20;;;;;;;8.51;100.00;100708.75;1802712;78;21054;-66
2021/12/15 06:22:29;;;;;;;11.38;7.78;;;;;;;8.68;100.00;100704.91;1808235;78;21101;-65
2021/12/15 06:24:56;;;;;;;13.40;7.83;;;;;;;8.97;100.00;100698.75;1807925;79;21110;-66
2021/12/15 06:27:24;;;;;;;11.22;6.92;;;;;;;9.20;100.00;100702.81;1808005;79;21023;-65
2021/12/15 06:29:52;;;;;;;10.53;7.12;;;;;;;9.07;100.00;100700.39;1807420;79;21139;-65
2021/12/15 06:32:20;;;;;;;10.55;7.20;;;;;;;8.50;100.00;100711.02;1796171;78;21754;-66
2021/12/15 06:34:47;;;;;;;10.03;7.15;;;;;;;8.76;100.00;100704.92;1806830;79;20849;-66
2021/12/15 06:37:15;;;;;;;10.05;6.37;;;;;;;9.03;100.00;100704.30;1808056;78;21050;-69
2021/12/15 06:39:42;;;;;;;9.35;6.15;;;;;;;9.17;100.00;100710.97;1806092;79;21030;-69
2021/12/15 06:42:09;;;;;;;9.98;6.15;;;;;;;9.09;100.00;100702.33;1807745;79;21838;-70
2021/12/15 06:44:36;;;;;;;12.28;7.30;;;;;;;9.28;100.00;100705.94;1808127;79;21015;-71
2021/12/15 07:00:36;;;;;;;10.15;6.47;;;;;;;9.46;100.00;100708.34;1808362;78;21087;-71
2021/12/15 07:03:04;;;;;;;10.20;6.70;;;;;;;9.48;100.00;100712.91;1790950;78;22129;-69
2021/12/15 07:05:32;;;;;;;9.50;6.45;;;;;;;9.68;100.00;100710.75;1791514;79;20959;-69
2021/12/15 07:07:59;;;;;;;14.60;7.50;;;;;;;9.80;100.00;100706.81;1737119;82;21152;-68
2021/12/15 07:10:31;;;;;;;11.73;7.92;;;;;;;9.90;100.00;100710.05;1735575;82;21338;-71
2021/12/15 07:12:58;;;;;;;10.85;6.30;;;;;;;9.63;100.00;100707.84;1727059;82;21046;-69
2021/12/15 07:15:27;;;;;;;9.90;6.28;;;;;;;8.94;100.00;100721.20;1738556;82;21118;-68
2021/12/15 07:18:01;;;;;;;9.70;5.95;;;;;;;8.91;100.00;100732.41;1733485;82;21078;-69
2021/12/15 07:22:57;;;;;;;9.98;6.65;;;;;;;8.15;100.00;100731.48;1762787;79;21068;-71
2021/12/15 07:25:25;;;;;;;11.97;6.97;;;;;;;8.37;100.00;100722.36;1806639;79;21051;-71
2021/12/15 07:27:52;;;;;;;9.40;6.35;;;;;;;8.42;100.00;100720.59;1745969;81;21068;-70
2021/12/15 07:30:19;;;;;;;9.85;6.00;;;;;;;8.40;100.00;100718.62;1759947;79;20973;-69
2021/12/15 07:32:47;;;;;;;9.28;6.50;;;;;;;8.46;100.00;100723.19;1807264;79;22231;-69
2021/12/15 07:35:16;;;;;;;10.00;6.00;;;;;;;8.59;100.00;100726.63;1807711;78;21039;-68
2021/12/15 07:37:43;;;;;;;8.13;5.35;;;;;;;8.74;100.00;100732.84;1807853;79;21663;-69
2021/12/15 07:40:21;;;;;;;9.10;5.58;;;;;;;8.66;100.00;100732.34;1799420;78;20982;-69
2021/12/15 07:42:57;;;;;;;9.18;6.05;;;;;;;8.60;100.00;100725.66;1807918;78;21033;-69
2021/12/15 07:45:25;;;;;;;10.93;6.80;;;;;;;8.96;100.00;100731.42;1808283;78;21086;-69
2021/12/15 07:47:53;;;;;;;9.00;6.08;;;;;;;8.88;100.00;100736.13;1806123;78;21267;-70
2021/12/15 07:50:20;;;;;;;8.90;5.78;;;;;;;8.92;100.00;100740.03;1802504;78;22388;-68
2021/12/15 07:52:49;;;;;;;8.40;5.33;;;;;;;8.75;100.00;100726.20;1788938;79;20954;-69
2021/12/15 07:55:16;;;;;;;9.95;6.30;;;;;;;8.97;100.00;100715.65;1799119;78;20977;-69
2021/12/15 07:57:44;;;;;;;9.00;6.30;;;;;;;9.07;100.00;100721.20;1799952;79;21143;-69
2021/12/15 08:00:12;;;;;;;7.97;5.33;;;;;;;9.07;100.00;100718.60;1804332;78;21109;-70
2021/12/15 08:02:40;;;;;;;9.30;5.87;;;;;;;8.71;100.00;100715.80;1800804;79;21332;-69
2021/12/15 08:05:10;;;;;;;9.93;6.28;;;;;;;8.78;100.00;100721.15;1811111;79;21526;-68
2021/12/15 08:07:37;;;;;;;8.20;5.72;;;;;;;8.88;100.00;100721.02;1808910;79;21006;-71
2021/12/15 08:10:08;;;;;;;9.63;6.97;;;;;;;8.70;100.00;100717.23;1810463;79;21135;-70
2021/12/15 08:12:36;;;;;;;;;;;;;;;8.74;100.00;100714.64;1813428;79;21074;-69
2021/12/15 08:15:06;;;;;;;10.53;7.12;;;;;;;9.02;100.00;100702.19;1804677;78;20125;-70
2021/12/15 08:17:35;;;;;;;9.13;5.53;;;;;;;9.08;100.00;100692.91;1797079;79;21515;-70
2021/12/15 08:20:04;;;;;;;8.63;6.08;;;;;;;9.48;100.00;100698.59;1803931;79;22276;-71
2021/12/15 08:22:33;;;;;;;8.70;6.60;;;;;;;9.36;100.00;100687.71;1807614;78;22208;-67
2021/12/15 08:25:01;;;;;;;8.95;5.92;;;;;;;9.34;100.00;100688.34;1804625;79;21054;-68
2021/12/15 08:27:28;;;;;;;9.03;6.50;;;;;;;9.25;100.00;100694.55;1809720;79;20986;-67
2021/12/15 08:29:57;;;;;;;9.33;6.37;;;;;;;9.09;100.00;100699.27;1810813;79;22530;-71
2021/12/15 08:32:24;;;;;;;9.80;6.40;;;;;;;9.16;100.00;100701.52;1796811;79;21017;-69
2021/12/15 08:34:52;;;;;;;8.05;5.78;;;;;;;9.19;100.00;100708.19;1806114;79;21147;-69
2021/12/15 08:37:20;;;;;;;7.83;5.42;;;;;;;9.16;100.00;100704.61;1798294;79;21000;-69
2021/12/15 08:39:47;;;;;;;9.73;6.12;;;;;;;9.12;100.00;100698.92;1807918;79;21129;-66
2021/12/15 08:42:14;;;;;;;9.35;6.08;;;;;;;9.11;100.00;100706.90;1802742;78;21487;-68
2021/12/15 08:44:41;;;;;;;7.67;5.80;;;;;;;8.97;100.00;100709.64;1799830;79;21536;-67
2021/12/15 08:47:09;;;;;;;7.80;6.08;;;;;;;9.00;100.00;100702.82;1797339;79;21155;-72
2021/12/15 08:49:36;;;;;;;8.88;6.10;;;;;;;9.05;100.00;100692.73;1804916;79;20983;-69
2021/12/15 08:52:05;;;;;;;9.23;5.97;;;;;;;8.97;100.00;100687.05;1809564;79;21047;-70
2021/12/15 08:54:32;;;;;;;7.92;5.20;;;;;;;9.00;100.00;100688.03;1807828;79;21137;-70
2021/12/15 08:57:01;;;;;;;8.75;5.30;;;;;;;9.09;100.00;100688.87;1810726;79;21481;-72
2021/12/15 08:59:28;;;;;;;7.47;5.12;;;;;;;9.03;100.00;100682.19;1810143;79;22360;-69
2021/12/15 09:01:57;;;;;;;8.15;5.60;;;;;;;8.93;100.00;100680.55;1803642;79;20998;-71
2021/12/15 09:04:24;;;;;;;6.97;4.80;;;;;;;9.00;100.00;100674.22;1801363;78;22453;-69
2021/12/15 09:06:52;;;;;;;7.70;5.05;;;;;;;8.84;100.00;100675.52;1794725;78;20970;-68
2021/12/15 09:09:20;;;;;;;7.12;4.80;;;;;;;9.10;100.00;100671.47;1804488;79;21074;-69
2021/12/15 09:11:50;;;;;;;7.72;5.17;;;;;;;9.11;100.00;100675.69;1802317;79;21109;-69
2021/12/15 09:14:18;;;;;;;7.08;4.92;;;;;;;9.23;100.00;100674.37;1808221;79;20983;-70
2021/12/15 09:16:50;;;;;;;8.15;4.78;;;;;;;9.09;100.00;100676.33;1808075;79;21113;-68
2021/12/15 09:19:17;;;;;;;7.50;5.28;;;;;;;9.12;100.00;100668.20;1804157;79;20992;-68
2021/12/15 09:21:46;;;;;;;8.40;5.72;;;;;;;9.18;100.00;100667.56;1802686;79;21066;-69
2021/12/15 09:24:13;;;;;;;7.75;5.30;;;;;;;9.42;100.00;100662.31;1807810;79;21825;-69
2021/12/15 09:26:41;;;;;;;8.30;5.47;;;;;;;9.46;100.00;100661.00;1793947;79;21465;-68
2021/12/15 09:29:10;;;;;;;7.00;4.72;;;;;;;9.42;100.00;100663.61;1797548;79;21004;-68
2021/12/15 09:31:38;;;;;;;9.85;4.95;;;;;;;9.59;100.00;100662.30;1795851;79;21109;-69
2021/12/15 09:34:06;;;;;;;8.75;5.37;;;;;;;9.61;100.00;100660.33;1800031;79;21085;-69
2021/12/15 09:36:34;;;;;;;7.97;5.28;;;;;;;9.38;100.00;100668.83;1809872;79;21140;-68
2021/12/15 09:39:09;;;;;;;7.25;5.03;;;;;;;9.57;100.00;100669.45;1801384;79;20954;-69
2021/12/15 09:41:36;;;;;;;6.40;4.55;;;;;;;9.60;100.00;100675.63;1806497;78;21469;-71
2021/12/15 09:44:09;;;;;;;8.25;5.25;;;;;;;9.52;100.00;100680.37;1808787;79;21517;-68
2021/12/15 09:57:34;;;;;;;8.20;5.20;;;;;;;9.63;100.00;100680.02;1807886;79;20892;-68
2021/12/15 10:05:27;;;;;;;7.62;4.70;;;;;;;9.91;100.00;100677.81;1805570;78;21097;-67
2021/12/15 10:18:33;;;;;;;7.37;4.33;;;;;;;9.22;100.00;100646.25;1805039;78;21363;-69
2021/12/15 10:20:47;;;;;;;8.08;5.12;;;;;;;9.42;100.00;100637.59;1802217;79;20955;-67
2021/12/15 10:23:16;;;;;;;9.98;5.20;;;;;;;9.01;100.00;100641.55;1805933;79;20968;-68
2021/12/15 10:25:49;;;;;;;9.18;5.08;;;;;;;9.01;100.00;100646.74;1792914;78;21003;-69
2021/12/15 10:28:25;;;;;;;7.30;4.45;;;;;;;9.50;100.00;100632.86;1805569;79;21120;-69
2021/12/15 10:31:02;;;;;;;9.73;5.37;;;;;;;9.55;100.00;100629.78;1807776;79;21003;-68
2021/12/15 10:33:37;;;;;;;6.95;4.60;;;;;;;9.58;100.00;100619.02;1802064;78;20923;-70
2021/12/15 10:36:13;;;;;;;7.35;4.53;;;;;;;9.72;100.00;100617.83;1804845;79;22375;-69
2021/12/15 10:38:54;;;;;;;7.65;4.70;;;;;;;9.70;100.00;100615.91;1805908;78;20988;-70
2021/12/15 10:41:28;;;;;;;7.78;4.87;;;;;;;9.82;100.00;100608.53;1799401;78;21161;-70
2021/12/15 10:44:03;;;;;;;9.90;5.30;;;;;;;9.61;100.00;100608.27;1804197;79;21939;-69
2021/12/15 10:46:52;;;;;;;7.67;4.87;;;;;;;10.06;100.00;100608.09;1806686;78;21003;-71
2021/12/15 10:49:24;;;;;;;8.10;4.83;;;;;;;9.98;100.00;100619.36;1802449;79;21110;-71
2021/12/15 10:51:57;;;;;;;8.20;5.10;;;;;;;9.89;100.00;100615.99;1774441;79;21058;-70
2021/12/15 10:54:36;;;;;;;8.00;4.97;;;;;;;9.83;100.00;100626.27;1796718;78;21126;-70
2021/12/15 10:57:10;;;;;;;6.50;4.55;;;;;;;10.00;100.00;100623.92;1800566;78;21046;-71
2021/12/15 10:59:43;;;;;;;7.20;4.50;;;;;;;9.98;100.00;100624.08;1800317;78;21045;-68
2021/12/15 11:02:13;;;;;;;6.87;4.53;;;;;;;10.22;100.00;100617.11;1799713;78;21171;-70
2021/12/15 11:04:53;;;;;;;8.98;5.20;;;;;;;10.27;100.00;100617.95;1801149;79;21343;-70
2021/12/15 11:07:29;;;;;;;6.12;4.17;;;;;;;10.36;100.00;100619.02;1800744;79;21117;-72
2021/12/15 11:10:16;;;;;;;7.25;4.67;;;;;;;10.51;100.00;100610.46;1802964;78;20893;-72
2021/12/15 11:12:48;;;;;;;7.20;4.67;;;;;;;10.75;100.00;100608.96;1794040;79;21481;-73
2021/12/15 11:15:29;;;;;;;7.53;4.37;;;;;;;10.61;100.00;100622.78;1801961;79;21063;-72
2021/12/15 11:18:05;;;;;;;7.80;5.20;;;;;;;10.54;100.00;100622.66;1804123;79;21014;-72
2021/12/15 11:20:39;;;;;;;6.25;4.15;;;;;;;10.45;100.00;100619.77;1779598;79;20912;-71
2021/12/15 11:23:16;;;;;;;7.35;4.08;;;;;;;10.21;100.00;100622.81;1811597;79;20951;-74
2021/12/15 11:25:51;;;;;;;6.53;4.17;;;;;;;10.27;100.00;100630.48;1811832;79;20927;-74
2021/12/15 11:28:24;;;;;;;6.60;4.10;;;;;;;10.21;100.00;100620.70;1801688;78;20951;-73
2021/12/15 11:31:06;;;;;;;9.43;5.53;;;;;;;10.26;100.00;100617.61;1810136;79;22109;-75
2021/12/15 11:33:48;;;;;;;7.58;4.70;;;;;;;10.34;100.00;100624.07;1804331;79;21108;-73
2021/12/15 11:36:35;;;;;;;;;;;;;;;10.14;100.00;100623.67;1814052;79;21007;-74
2021/12/15 11:39:24;;;;;;;6.87;4.08;;;;;;;9.94;100.00;100622.80;1811504;78;20176;-68
2021/12/15 11:41:53;;;;;;;6.45;4.00;;;;;;;10.03;100.00;100624.86;1809615;79;21045;-70
2021/12/15 11:44:22;;;;;;;8.08;4.37;;;;;;;9.92;100.00;100629.95;1810510;79;21364;-72
2021/12/15 11:46:53;;;;;;;7.90;4.25;;;;;;;9.97;100.00;100630.27;1811502;79;21532;-75
2021/12/15 11:49:29;;;;;;;8.00;4.85;;;;;;;10.19;100.00;100633.91;1811593;79;21082;-71
2021/12/15 11:52:07;;;;;;;7.12;4.20;;;;;;;10.28;100.00;100638.61;1809607;79;20998;-73
2021/12/15 11:54:42;;;;;;;7.72;3.80;;;;;;;10.24;100.00;100638.11;1811128;79;20980;-69
2021/12/15 11:57:24;;;;;;;7.67;3.87;;;;;;;10.61;100.00;100643.64;1810873;79;21391;-71
2021/12/15 12:00:06;;;;;;;6.85;3.33;;;;;;;10.35;100.00;100657.80;1809714;79;21113;-68
2021/12/15 12:02:43;;;;;;;5.65;3.52;;;;;;;10.10;100.00;100654.45;1810669;79;20876;-67
2021/12/15 12:05:16;;;;;;;6.60;3.77;;;;;;;10.10;100.00;100654.95;1808261;79;21041;-70
2021/12/15 12:07:53;;;;;;;5.75;3.33;;;;;;;9.97;100.00;100653.71;1809451;79;21383;-70
2021/12/15 12:10:42;;;;;;;7.10;3.52;;;;;;;10.18;100.00;100661.42;1809939;78;20959;-70
2021/12/15 12:13:11;;;;;;;6.53;3.85;;;;;;;10.25;100.00;100662.40;1808181;79;21135;-70
2021/12/15 12:15:42;;;;;;;6.17;3.80;;;;;;;10.20;100.00;100661.58;1809987;78;21034;-69
2021/12/15 12:18:16;;;;;;;6.35;3.60;;;;;;;10.42;100.00;100670.46;1809801;78;21454;-71
2021/12/15 12:20:53;;;;;;;5.83;2.80;;;;;;;10.66;100.00;100675.20;1808676;79;20939;-71
2021/12/15 12:23:25;;;;;;;6.97;3.50;;;;;;;10.72;100.00;100679.73;1810086;79;21486;-69
2021/12/15 12:25:56;;;;;;;8.33;3.83;;;;;;;10.38;100.00;100679.61;1809483;79;21139;-70
2021/12/15 12:28:27;;;;;;;6.25;3.52;;;;;;;10.47;100.00;100679.87;1809149;79;20989;-72
2021/12/15 12:31:03;;;;;;;8.88;6.22;;;;;;;8.85;100.00;100687.53;1810214;79;21057;-70
2021/12/15 12:33:31;;;;;;;10.88;8.33;;;;;;;8.65;100.00;100692.23;1809366;79;21596;-72
2021/12/15 12:36:12;;;;;;;8.63;6.62;;;;;;;8.77;100.00;100690.94;1810063;79;21046;-72
2021/12/15 12:38:42;;;;;;;8.25;5.37;;;;;;;8.73;100.00;100685.73;1810097;79;21113;-72
2021/12/15 12:41:15;;;;;;;8.13;5.15;;;;;;;8.48;100.00;100697.85;1809639;78;21525;-71
2021/12/15 12:43:46;;;;;;;12.75;6.70;;;;;;;8.77;100.00;100688.34;1809918;79;21650;-72
2021/12/15 13:00:29;;;;;;;6.97;3.70;;;;;;;9.40;100.00;100705.11;1809734;79;20939;-70
2021/12/15 13:03:04;;;;;;;6.35;3.52;;;;;;;9.47;100.00;100706.89;1809574;79;22437;-70